sensor_id;sensor_type;location;lat;lon;timestamp;pressure;altitude;pressure_sealevel;temperature;humidity
15678;BME280;7939;50.814;6.368;2022-10-17T00:01:53;100017.91;;;18.74;65.84
15678;BME280;7939;50.814;6.368;2022-10-17T00:04:21;100023.09;;;18.74;66.01
15678;BME280;7939;50.814;6.368;2022-10-17T00:06:47;100026.50;;;18.74;65.80
15678;BME280;7939;50.814;6.368;2022-10-17T00:09:14;100027.41;;;18.73;65.85
15678;BME280;7939;50.814;6.368;2022-10-17T00:11:41;100023.09;;;18.74;66.32
15678;BME280;7939;50.814;6.368;2022-10-17T00:14:07;100022.22;;;18.73;66.16
15678;BME280;7939;50.814;6.368;2022-10-17T00:16:35;100024.81;;;18.73;66.15
15678;BME280;7939;50.814;6.368;2022-10-17T00:19:04;100017.91;;;18.74;66.01
15678;BME280;7939;50.814;6.368;2022-10-17T00:21:32;100013.56;;;18.74;66.28
15678;BME280;7939;50.814;6.368;2022-10-17T00:23:59;100013.56;;;18.74;66.22
15678;BME280;7939;50.814;6.368;2022-10-17T00:26:26;100011.88;;;18.73;66.34
15678;BME280;7939;50.814;6.368;2022-10-17T00:28:54;100010.13;;;18.74;65.95
15678;BME280;7939;50.814;6.368;2022-10-17T00:31:21;100012.72;;;18.74;66.02
15678;BME280;7939;50.814;6.368;2022-10-17T00:33:49;100011.88;;;18.73;65.75
15678;BME280;7939;50.814;6.368;2022-10-17T00:36:18;100015.31;;;18.74;66.50
15678;BME280;7939;50.814;6.368;2022-10-17T00:38:47;100019.66;;;18.73;65.80
15678;BME280;7939;50.814;6.368;2022-10-17T00:41:16;100017.91;;;18.74;66.03
15678;BME280;7939;50.814;6.368;2022-10-17T00:43:55;100027.41;;;18.73;65.68
15678;BME280;7939;50.814;6.368;2022-10-17T00:46:24;100026.50;;;18.74;65.70
15678;BME280;7939;50.814;6.368;2022-10-17T00:48:52;100023.94;;;18.73;66.21
15678;BME280;7939;50.814;6.368;2022-10-17T00:51:24;100029.13;;;18.73;66.34
15678;BME280;7939;50.814;6.368;2022-10-17T00:53:54;100026.53;;;18.73;66.43
15678;BME280;7939;50.814;6.368;2022-10-17T00:56:21;100025.69;;;18.72;66.24
15678;BME280;7939;50.814;6.368;2022-10-17T00:58:48;100021.41;;;18.71;65.86
15678;BME280;7939;50.814;6.368;2022-10-17T01:01:15;100024.84;;;18.72;66.40
15678;BME280;7939;50.814;6.368;2022-10-17T01:03:41;100023.94;;;18.73;65.83
15678;BME280;7939;50.814;6.368;2022-10-17T01:06:08;100022.25;;;18.72;66.27
15678;BME280;7939;50.814;6.368;2022-10-17T01:08:37;100017.97;;;18.71;65.83
15678;BME280;7939;50.814;6.368;2022-10-17T01:11:12;100019.66;;;18.72;66.00
15678;BME280;7939;50.814;6.368;2022-10-17T01:13:45;100016.22;;;18.71;66.25
15678;BME280;7939;50.814;6.368;2022-10-17T01:16:18;100005.03;;;18.71;66.78
15678;BME280;7939;50.814;6.368;2022-10-17T01:18:55;100003.28;;;18.71;66.16
15678;BME280;7939;50.814;6.368;2022-10-17T01:21:38;100001.59;;;18.70;66.58
15678;BME280;7939;50.814;6.368;2022-10-17T01:30:17;100010.22;;;18.71;66.67
15678;BME280;7939;50.814;6.368;2022-10-17T01:32:55;100014.53;;;18.70;66.29
15678;BME280;7939;50.814;6.368;2022-10-17T01:35:26;100014.53;;;18.70;66.76
15678;BME280;7939;50.814;6.368;2022-10-17T01:38:00;100016.28;;;18.70;66.33
15678;BME280;7939;50.814;6.368;2022-10-17T01:40:34;100021.47;;;18.70;66.40
15678;BME280;7939;50.814;6.368;2022-10-17T01:43:04;100018.88;;;18.70;66.87
15678;BME280;7939;50.814;6.368;2022-10-17T01:45:36;100011.09;;;18.70;66.94
15678;BME280;7939;50.814;6.368;2022-10-17T01:48:11;100008.53;;;18.70;66.71
15678;BME280;7939;50.814;6.368;2022-10-17T01:50:42;100006.81;;;18.69;66.80
15678;BME280;7939;50.814;6.368;2022-10-17T01:53:14;100002.50;;;18.69;67.01
15678;BME280;7939;50.814;6.368;2022-10-17T01:55:45;100002.50;;;18.69;66.16
15678;BME280;7939;50.814;6.368;2022-10-17T01:58:18;100003.34;;;18.70;66.05
15678;BME280;7939;50.814;6.368;2022-10-17T02:00:47;99999.00;;;18.70;66.75
15678;BME280;7939;50.814;6.368;2022-10-17T02:03:18;99998.16;;;18.70;66.42
15678;BME280;7939;50.814;6.368;2022-10-17T02:05:46;99990.41;;;18.70;66.40
15678;BME280;7939;50.814;6.368;2022-10-17T02:08:13;99995.53;;;18.71;66.23
15678;BME280;7939;50.814;6.368;2022-10-17T02:10:47;99990.34;;;18.71;66.39
15678;BME280;7939;50.814;6.368;2022-10-17T02:13:22;99988.66;;;18.70;66.72
15678;BME280;7939;50.814;6.368;2022-10-17T02:16:11;99986.00;;;18.72;66.73
15678;BME280;7939;50.814;6.368;2022-10-17T02:18:59;99984.25;;;18.72;66.42
15678;BME280;7939;50.814;6.368;2022-10-17T02:21:32;99986.00;;;18.73;66.22
15678;BME280;7939;50.814;6.368;2022-10-17T02:24:06;99979.06;;;18.74;66.67
15678;BME280;7939;50.814;6.368;2022-10-17T02:26:43;99983.34;;;18.75;67.21
15678;BME280;7939;50.814;6.368;2022-10-17T02:29:15;99985.09;;;18.74;66.69
15678;BME280;7939;50.814;6.368;2022-10-17T02:31:45;99988.53;;;18.75;67.12
15678;BME280;7939;50.814;6.368;2022-10-17T02:34:17;99981.59;;;18.75;66.73
15678;BME280;7939;50.814;6.368;2022-10-17T02:36:48;99985.03;;;18.76;67.14
15678;BME280;7939;50.814;6.368;2022-10-17T02:39:17;99972.94;;;18.76;67.13
15678;BME280;7939;50.814;6.368;2022-10-17T02:41:47;99983.22;;;18.78;66.47
15678;BME280;7939;50.814;6.368;2022-10-17T02:44:14;99978.97;;;18.77;66.86
15678;BME280;7939;50.814;6.368;2022-10-17T02:46:44;99970.25;;;18.79;66.32
15678;BME280;7939;50.814;6.368;2022-10-17T02:49:19;99973.69;;;18.80;66.35
15678;BME280;7939;50.814;6.368;2022-10-17T02:51:51;99965.94;;;18.80;66.89
15678;BME280;7939;50.814;6.368;2022-10-17T02:54:27;99975.38;;;18.81;66.65
15678;BME280;7939;50.814;6.368;2022-10-17T02:57:01;99976.19;;;18.83;67.33
15678;BME280;7939;50.814;6.368;2022-10-17T02:59:33;99974.44;;;18.83;66.67
15678;BME280;7939;50.814;6.368;2022-10-17T03:02:02;99982.19;;;18.83;66.75
15678;BME280;7939;50.814;6.368;2022-10-17T03:04:30;99973.53;;;18.84;66.70
15678;BME280;7939;50.814;6.368;2022-10-17T03:06:57;99960.69;;;18.81;67.03
15678;BME280;7939;50.814;6.368;2022-10-17T03:09:24;99971.78;;;18.85;66.80
15678;BME280;7939;50.814;6.368;2022-10-17T03:11:50;99970.06;;;18.85;67.10
15678;BME280;7939;50.814;6.368;2022-10-17T03:14:17;99978.63;;;18.88;67.36
15678;BME280;7939;50.814;6.368;2022-10-17T03:16:43;99985.50;;;18.89;66.45
15678;BME280;7939;50.814;6.368;2022-10-17T03:19:10;99982.91;;;18.89;67.16
15678;BME280;7939;50.814;6.368;2022-10-17T03:21:38;99987.19;;;18.90;66.81
15678;BME280;7939;50.814;6.368;2022-10-17T03:24:05;99991.47;;;18.91;67.11
15678;BME280;7939;50.814;6.368;2022-10-17T03:26:31;100008.69;;;18.92;66.55
15678;BME280;7939;50.814;6.368;2022-10-17T03:28:58;100003.53;;;18.92;66.00
15678;BME280;7939;50.814;6.368;2022-10-17T03:31:24;100007.00;;;18.92;66.28
15678;BME280;7939;50.814;6.368;2022-10-17T03:33:51;100005.19;;;18.94;67.05
15678;BME280;7939;50.814;6.368;2022-10-17T03:36:18;100006.03;;;18.95;67.24
15678;BME280;7939;50.814;6.368;2022-10-17T03:38:46;100004.28;;;18.95;67.28
15678;BME280;7939;50.814;6.368;2022-10-17T03:41:13;100004.25;;;18.97;67.23
15678;BME280;7939;50.814;6.368;2022-10-17T03:43:40;100005.13;;;18.96;66.63
15678;BME280;7939;50.814;6.368;2022-10-17T03:46:07;100008.53;;;18.98;66.86
15678;BME280;7939;50.814;6.368;2022-10-17T03:48:33;100012.84;;;18.99;66.77
15678;BME280;7939;50.814;6.368;2022-10-17T03:51:00;100007.66;;;18.99;67.19
15678;BME280;7939;50.814;6.368;2022-10-17T03:53:27;100011.09;;;18.99;67.50
15678;BME280;7939;50.814;6.368;2022-10-17T03:55:56;100011.09;;;18.99;66.61
15678;BME280;7939;50.814;6.368;2022-10-17T03:58:22;100007.59;;;19.00;66.72
15678;BME280;7939;50.814;6.368;2022-10-17T04:00:49;100012.78;;;19.00;67.01
15678;BME280;7939;50.814;6.368;2022-10-17T04:03:16;100014.53;;;19.00;66.93
15678;BME280;7939;50.814;6.368;2022-10-17T04:05:43;100017.09;;;19.00;66.58
15678;BME280;7939;50.814;6.368;2022-10-17T04:08:09;100023.13;;;19.00;67.17
15678;BME280;7939;50.814;6.368;2022-10-17T04:10:36;100022.28;;;19.00;67.10
15678;BME280;7939;50.814;6.368;2022-10-17T04:13:04;100021.38;;;19.01;66.88
15678;BME280;7939;50.814;6.368;2022-10-17T04:15:31;100023.13;;;19.00;67.12
15678;BME280;7939;50.814;6.368;2022-10-17T04:17:57;100017.97;;;19.00;67.01
15678;BME280;7939;50.814;6.368;2022-10-17T04:20:24;100011.94;;;19.00;66.49
15678;BME280;7939;50.814;6.368;2022-10-17T04:22:50;100006.75;;;19.00;67.37
15678;BME280;7939;50.814;6.368;2022-10-17T04:25:17;100008.44;;;19.01;67.14
15678;BME280;7939;50.814;6.368;2022-10-17T04:27:43;100017.06;;;19.01;67.57
15678;BME280;7939;50.814;6.368;2022-10-17T04:30:12;100012.78;;;19.00;66.93
15678;BME280;7939;50.814;6.368;2022-10-17T04:32:38;100027.41;;;19.01;67.65
15678;BME280;7939;50.814;6.368;2022-10-17T04:35:05;100029.16;;;19.01;67.32
15678;BME280;7939;50.814;6.368;2022-10-17T04:37:32;100020.50;;;19.02;66.94
15678;BME280;7939;50.814;6.368;2022-10-17T04:39:59;100027.41;;;19.01;67.49
15678;BME280;7939;50.814;6.368;2022-10-17T04:42:27;100027.41;;;19.01;67.50
15678;BME280;7939;50.814;6.368;2022-10-17T04:44:54;100017.06;;;19.01;66.63
15678;BME280;7939;50.814;6.368;2022-10-17T04:47:22;100011.88;;;19.01;66.45
15678;BME280;7939;50.814;6.368;2022-10-17T04:49:48;100014.47;;;19.01;66.62
15678;BME280;7939;50.814;6.368;2022-10-17T04:52:15;100014.47;;;19.01;67.14
15678;BME280;7939;50.814;6.368;2022-10-17T04:54:41;100018.75;;;19.02;66.77
15678;BME280;7939;50.814;6.368;2022-10-17T04:57:08;100023.94;;;19.02;67.33
15678;BME280;7939;50.814;6.368;2022-10-17T04:59:34;100023.94;;;19.02;66.98
15678;BME280;7939;50.814;6.368;2022-10-17T05:02:01;100033.38;;;19.03;66.85
15678;BME280;7939;50.814;6.368;2022-10-17T05:04:29;100020.50;;;19.02;66.58
15678;BME280;7939;50.814;6.368;2022-10-17T05:06:55;100030.78;;;19.03;66.84
15678;BME280;7939;50.814;6.368;2022-10-17T05:09:22;100035.06;;;19.04;67.03
15678;BME280;7939;50.814;6.368;2022-10-17T05:11:49;100023.84;;;19.05;66.98
15678;BME280;7939;50.814;6.368;2022-10-17T05:14:15;100029.91;;;19.04;67.12
15678;BME280;7939;50.814;6.368;2022-10-17T05:16:42;100034.22;;;19.05;67.43
15678;BME280;7939;50.814;6.368;2022-10-17T05:19:10;100043.66;;;19.06;67.16
15678;BME280;7939;50.814;6.368;2022-10-17T05:21:38;100056.63;;;19.06;67.23
15678;BME280;7939;50.814;6.368;2022-10-17T05:24:05;100051.44;;;19.06;67.10
15678;BME280;7939;50.814;6.368;2022-10-17T05:26:31;100058.31;;;19.07;67.30
15678;BME280;7939;50.814;6.368;2022-10-17T05:28:58;100061.81;;;19.06;67.04
15678;BME280;7939;50.814;6.368;2022-10-17T05:31:27;100060.13;;;19.05;67.66
15678;BME280;7939;50.814;6.368;2022-10-17T05:33:53;100059.22;;;19.06;67.72
15678;BME280;7939;50.814;6.368;2022-10-17T05:36:20;100054.09;;;19.05;67.04
15678;BME280;7939;50.814;6.368;2022-10-17T05:38:49;100054.94;;;19.04;67.57
15678;BME280;7939;50.814;6.368;2022-10-17T05:41:17;100052.38;;;19.04;67.18
15678;BME280;7939;50.814;6.368;2022-10-17T05:43:43;100049.78;;;19.04;67.17
15678;BME280;7939;50.814;6.368;2022-10-17T05:46:10;100054.09;;;19.03;67.60
15678;BME280;7939;50.814;6.368;2022-10-17T05:48:37;100061.88;;;19.03;67.32
15678;BME280;7939;50.814;6.368;2022-10-17T05:51:05;100069.66;;;19.03;66.96
15678;BME280;7939;50.814;6.368;2022-10-17T05:53:34;100068.81;;;19.03;67.14
15678;BME280;7939;50.814;6.368;2022-10-17T05:56:04;100061.03;;;19.03;67.17
15678;BME280;7939;50.814;6.368;2022-10-17T06:01:00;100068.84;;;19.01;66.95
15678;BME280;7939;50.814;6.368;2022-10-17T06:03:26;100069.69;;;19.02;67.00
15678;BME280;7939;50.814;6.368;2022-10-17T06:05:53;100066.22;;;19.03;66.98
15678;BME280;7939;50.814;6.368;2022-10-17T06:08:20;100072.28;;;19.02;67.16
15678;BME280;7939;50.814;6.368;2022-10-17T06:10:47;100074.03;;;19.01;66.79
15678;BME280;7939;50.814;6.368;2022-10-17T06:13:16;100069.75;;;19.00;67.08
15678;BME280;7939;50.814;6.368;2022-10-17T06:15:43;100083.56;;;19.01;67.26
15678;BME280;7939;50.814;6.368;2022-10-17T06:18:10;100080.16;;;18.99;66.57
15678;BME280;7939;50.814;6.368;2022-10-17T06:20:37;100078.44;;;18.98;67.10
15678;BME280;7939;50.814;6.368;2022-10-17T06:23:04;100081.94;;;18.97;66.57
15678;BME280;7939;50.814;6.368;2022-10-17T06:25:32;100091.41;;;18.98;66.31
15678;BME280;7939;50.814;6.368;2022-10-17T06:27:58;100093.16;;;18.97;66.83
15678;BME280;7939;50.814;6.368;2022-10-17T06:30:26;100090.56;;;18.97;66.57
15678;BME280;7939;50.814;6.368;2022-10-17T06:32:53;100094.00;;;18.98;66.19
15678;BME280;7939;50.814;6.368;2022-10-17T06:35:20;100096.56;;;18.99;67.13
15678;BME280;7939;50.814;6.368;2022-10-17T06:37:47;100094.00;;;18.98;66.81
15678;BME280;7939;50.814;6.368;2022-10-17T06:40:13;100093.97;;;18.99;66.73
15678;BME280;7939;50.814;6.368;2022-10-17T06:42:41;100095.66;;;19.00;66.97
15678;BME280;7939;50.814;6.368;2022-10-17T06:45:09;100100.84;;;19.00;67.01
15678;BME280;7939;50.814;6.368;2022-10-17T06:47:37;100104.28;;;19.01;66.75
15678;BME280;7939;50.814;6.368;2022-10-17T06:50:04;100100.78;;;19.02;66.88
15678;BME280;7939;50.814;6.368;2022-10-17T06:52:31;100094.72;;;19.03;66.86
15678;BME280;7939;50.814;6.368;2022-10-17T06:54:57;100099.84;;;19.04;66.25
15678;BME280;7939;50.814;6.368;2022-10-17T06:57:24;100090.34;;;19.05;66.37
15678;BME280;7939;50.814;6.368;2022-10-17T06:59:50;100094.63;;;19.06;66.82
15678;BME280;7939;50.814;6.368;2022-10-17T07:02:17;100098.06;;;19.06;66.87
15678;BME280;7939;50.814;6.368;2022-10-17T07:04:46;100091.09;;;19.08;67.18
15678;BME280;7939;50.814;6.368;2022-10-17T07:07:12;100097.13;;;19.09;66.84
15678;BME280;7939;50.814;6.368;2022-10-17T07:09:39;100099.72;;;19.09;66.66
15678;BME280;7939;50.814;6.368;2022-10-17T07:12:05;100103.16;;;19.09;67.24
15678;BME280;7939;50.814;6.368;2022-10-17T07:14:32;100100.53;;;19.11;67.12
15678;BME280;7939;50.814;6.368;2022-10-17T07:16:59;100104.84;;;19.10;66.96
15678;BME280;7939;50.814;6.368;2022-10-17T07:19:26;100112.59;;;19.12;66.47
15678;BME280;7939;50.814;6.368;2022-10-17T07:21:54;100113.44;;;19.12;66.61
15678;BME280;7939;50.814;6.368;2022-10-17T07:24:21;100114.28;;;19.13;66.91
15678;BME280;7939;50.814;6.368;2022-10-17T07:26:47;100110.78;;;19.14;66.94
15678;BME280;7939;50.814;6.368;2022-10-17T07:29:14;100116.81;;;19.14;66.67
15678;BME280;7939;50.814;6.368;2022-10-17T07:31:41;100123.69;;;19.16;66.98
15678;BME280;7939;50.814;6.368;2022-10-17T07:34:09;100120.19;;;19.18;66.43
15678;BME280;7939;50.814;6.368;2022-10-17T07:36:36;100125.34;;;19.18;66.41
15678;BME280;7939;50.814;6.368;2022-10-17T07:39:04;100127.94;;;19.18;66.72
15678;BME280;7939;50.814;6.368;2022-10-17T07:41:30;100133.06;;;19.20;66.61
15678;BME280;7939;50.814;6.368;2022-10-17T07:43:57;100131.34;;;19.20;67.21
15678;BME280;7939;50.814;6.368;2022-10-17T07:46:24;100142.50;;;19.22;66.69
15678;BME280;7939;50.814;6.368;2022-10-17T07:48:50;100133.81;;;19.23;66.78
15678;BME280;7939;50.814;6.368;2022-10-17T07:51:17;100153.63;;;19.26;67.16
15678;BME280;7939;50.814;6.368;2022-10-17T07:53:44;100157.13;;;19.25;66.76
15678;BME280;7939;50.814;6.368;2022-10-17T07:56:13;100163.19;;;19.24;66.76
15678;BME280;7939;50.814;6.368;2022-10-17T07:58:39;100183.94;;;19.24;66.25
15678;BME280;7939;50.814;6.368;2022-10-17T08:01:07;100173.50;;;19.25;66.53
15678;BME280;7939;50.814;6.368;2022-10-17T08:03:35;100174.34;;;19.26;66.51
15678;BME280;7939;50.814;6.368;2022-10-17T08:06:02;100177.78;;;19.26;66.30
15678;BME280;7939;50.814;6.368;2022-10-17T08:08:29;100174.25;;;19.29;66.82
15678;BME280;7939;50.814;6.368;2022-10-17T08:11:00;100175.06;;;19.31;66.35
15678;BME280;7939;50.814;6.368;2022-10-17T08:13:29;100170.69;;;19.33;66.25
15678;BME280;7939;50.814;6.368;2022-10-17T08:15:58;100175.88;;;19.33;66.67
15678;BME280;7939;50.814;6.368;2022-10-17T08:18:25;100178.41;;;19.34;66.13
15678;BME280;7939;50.814;6.368;2022-10-17T08:20:52;100191.34;;;19.36;66.41
15678;BME280;7939;50.814;6.368;2022-10-17T08:23:18;100188.69;;;19.37;66.15
15678;BME280;7939;50.814;6.368;2022-10-17T08:25:45;100198.13;;;19.40;66.69
15678;BME280;7939;50.814;6.368;2022-10-17T08:28:11;100195.44;;;19.43;66.80
15678;BME280;7939;50.814;6.368;2022-10-17T08:30:39;100204.97;;;19.43;66.40
15678;BME280;7939;50.814;6.368;2022-10-17T08:33:06;100204.88;;;19.46;66.98
15678;BME280;7939;50.814;6.368;2022-10-17T08:35:32;100207.41;;;19.47;66.72
15678;BME280;7939;50.814;6.368;2022-10-17T08:37:59;100213.44;;;19.48;66.22
15678;BME280;7939;50.814;6.368;2022-10-17T08:40:28;100218.59;;;19.49;66.26
15678;BME280;7939;50.814;6.368;2022-10-17T08:43:11;100227.16;;;19.51;66.51
15678;BME280;7939;50.814;6.368;2022-10-17T08:45:44;100237.47;;;19.53;66.15
15678;BME280;7939;50.814;6.368;2022-10-17T08:48:16;100240.91;;;19.55;66.25
15678;BME280;7939;50.814;6.368;2022-10-17T08:50:46;100233.91;;;19.57;66.52
15678;BME280;7939;50.814;6.368;2022-10-17T08:53:18;100234.75;;;19.59;66.40
15678;BME280;7939;50.814;6.368;2022-10-17T08:55:47;100245.06;;;19.60;66.36
15678;BME280;7939;50.814;6.368;2022-10-17T08:58:18;100235.53;;;19.61;66.23
15678;BME280;7939;50.814;6.368;2022-10-17T09:00:52;100240.69;;;19.62;65.97
15678;BME280;7939;50.814;6.368;2022-10-17T09:03:32;100247.53;;;19.65;66.34
15678;BME280;7939;50.814;6.368;2022-10-17T09:06:10;100247.47;;;19.66;66.20
15678;BME280;7939;50.814;6.368;2022-10-17T09:08:44;100267.34;;;19.67;66.36
15678;BME280;7939;50.814;6.368;2022-10-17T09:11:25;100263.81;;;19.70;66.00
15678;BME280;7939;50.814;6.368;2022-10-17T09:14:07;100262.06;;;19.71;66.00
15678;BME280;7939;50.814;6.368;2022-10-17T09:16:57;100264.59;;;19.72;65.81
15678;BME280;7939;50.814;6.368;2022-10-17T09:19:30;100265.44;;;19.73;66.07
15678;BME280;7939;50.814;6.368;2022-10-17T09:21:59;100263.69;;;19.75;65.78
15678;BME280;7939;50.814;6.368;2022-10-17T09:24:36;100264.47;;;19.77;66.08
15678;BME280;7939;50.814;6.368;2022-10-17T09:27:04;100262.72;;;19.77;66.24
15678;BME280;7939;50.814;6.368;2022-10-17T09:29:32;100267.97;;;19.76;65.64
15678;BME280;7939;50.814;6.368;2022-10-17T09:32:03;100273.09;;;19.77;65.84
15678;BME280;7939;50.814;6.368;2022-10-17T09:34:31;100273.88;;;19.79;65.93
15678;BME280;7939;50.814;6.368;2022-10-17T09:36:59;100285.03;;;19.83;65.80
15678;BME280;7939;50.814;6.368;2022-10-17T09:39:27;100288.53;;;19.82;65.83
15678;BME280;7939;50.814;6.368;2022-10-17T09:41:57;100301.56;;;19.80;65.88
15678;BME280;7939;50.814;6.368;2022-10-17T09:44:29;100293.78;;;19.80;65.58
15678;BME280;7939;50.814;6.368;2022-10-17T09:47:04;100288.47;;;19.83;65.49
15678;BME280;7939;50.814;6.368;2022-10-17T09:49:36;100296.25;;;19.83;65.42
15678;BME280;7939;50.814;6.368;2022-10-17T09:52:05;100299.63;;;19.87;65.70
15678;BME280;7939;50.814;6.368;2022-10-17T09:54:40;100313.44;;;19.87;65.71
15678;BME280;7939;50.814;6.368;2022-10-17T09:57:09;100311.69;;;19.88;65.93
15678;BME280;7939;50.814;6.368;2022-10-17T09:59:38;100308.25;;;19.87;65.38
15678;BME280;7939;50.814;6.368;2022-10-17T10:02:17;100313.38;;;19.89;65.79
15678;BME280;7939;50.814;6.368;2022-10-17T10:05:00;100308.16;;;19.90;65.63
15678;BME280;7939;50.814;6.368;2022-10-17T10:07:29;100310.75;;;19.90;65.58
15678;BME280;7939;50.814;6.368;2022-10-17T10:09:57;100313.28;;;19.92;65.58
15678;BME280;7939;50.814;6.368;2022-10-17T10:12:29;100321.88;;;19.94;65.94
15678;BME280;7939;50.814;6.368;2022-10-17T10:14:56;100329.66;;;19.94;65.63
15678;BME280;7939;50.814;6.368;2022-10-17T10:17:28;100341.75;;;19.95;65.93
15678;BME280;7939;50.814;6.368;2022-10-17T10:19:59;100347.72;;;19.97;65.68
15678;BME280;7939;50.814;6.368;2022-10-17T10:22:25;100357.19;;;19.98;65.76
15678;BME280;7939;50.814;6.368;2022-10-17T10:25:06;100363.22;;;20.00;65.95
15678;BME280;7939;50.814;6.368;2022-10-17T10:27:34;100359.78;;;20.00;65.83
15678;BME280;7939;50.814;6.368;2022-10-17T10:30:01;100351.09;;;20.01;65.86
15678;BME280;7939;50.814;6.368;2022-10-17T10:32:31;100348.50;;;20.01;65.91
15678;BME280;7939;50.814;6.368;2022-10-17T10:35:00;100337.22;;;20.02;65.93
15678;BME280;7939;50.814;6.368;2022-10-17T10:37:32;100334.63;;;20.02;65.64
15678;BME280;7939;50.814;6.368;2022-10-17T10:40:02;100324.25;;;20.02;65.99
15678;BME280;7939;50.814;6.368;2022-10-17T10:42:31;100335.47;;;20.02;65.42
15678;BME280;7939;50.814;6.368;2022-10-17T10:45:02;100333.78;;;20.01;65.16
15678;BME280;7939;50.814;6.368;2022-10-17T10:47:31;100346.69;;;20.03;65.13
15678;BME280;7939;50.814;6.368;2022-10-17T10:50:23;100350.19;;;20.02;64.81
15678;BME280;7939;50.814;6.368;2022-10-17T10:52:58;100351.94;;;20.01;64.94
15678;BME280;7939;50.814;6.368;2022-10-17T10:55:33;100346.69;;;20.03;65.09
15678;BME280;7939;50.814;6.368;2022-10-17T10:58:08;100353.56;;;20.04;64.99
15678;BME280;7939;50.814;6.368;2022-10-17T11:00:40;100357.03;;;20.04;65.37
15678;BME280;7939;50.814;6.368;2022-10-17T11:03:13;100362.19;;;20.06;65.04
15678;BME280;7939;50.814;6.368;2022-10-17T11:05:43;100369.13;;;20.05;65.17
15678;BME280;7939;50.814;6.368;2022-10-17T11:08:18;100379.44;;;20.07;65.04
15678;BME280;7939;50.814;6.368;2022-10-17T11:11:00;100374.25;;;20.07;65.04
15678;BME280;7939;50.814;6.368;2022-10-17T11:13:33;100383.75;;;20.08;65.64
15678;BME280;7939;50.814;6.368;2022-10-17T11:16:17;100384.50;;;20.11;65.79
15678;BME280;7939;50.814;6.368;2022-10-17T11:18:52;100387.97;;;20.12;66.02
15678;BME280;7939;50.814;6.368;2022-10-17T11:21:27;100383.63;;;20.12;65.95
15678;BME280;7939;50.814;6.368;2022-10-17T11:24:04;100395.69;;;20.13;65.79
15678;BME280;7939;50.814;6.368;2022-10-17T11:26:39;100407.63;;;20.19;65.40
15678;BME280;7939;50.814;6.368;2022-10-17T11:29:09;100411.97;;;20.18;65.78
15678;BME280;7939;50.814;6.368;2022-10-17T11:31:39;100411.94;;;20.20;65.64
15678;BME280;7939;50.814;6.368;2022-10-17T11:34:11;100418.81;;;20.21;65.67
15678;BME280;7939;50.814;6.368;2022-10-17T11:36:45;100418.75;;;20.24;65.72
15678;BME280;7939;50.814;6.368;2022-10-17T11:39:16;100425.56;;;20.27;66.28
15678;BME280;7939;50.814;6.368;2022-10-17T11:41:47;100426.41;;;20.27;66.09
15678;BME280;7939;50.814;6.368;2022-10-17T11:44:19;100434.97;;;20.31;65.69
15678;BME280;7939;50.814;6.368;2022-10-17T11:46:51;100433.22;;;20.31;65.96
15678;BME280;7939;50.814;6.368;2022-10-17T11:49:26;100431.44;;;20.33;65.86
15678;BME280;7939;50.814;6.368;2022-10-17T11:52:00;100440.84;;;20.36;65.95
15678;BME280;7939;50.814;6.368;2022-10-17T11:54:36;100439.13;;;20.36;65.91
15678;BME280;7939;50.814;6.368;2022-10-17T11:57:31;100440.00;;;20.37;65.63
15678;BME280;7939;50.814;6.368;2022-10-17T12:00:10;100436.53;;;20.36;65.57
15678;BME280;7939;50.814;6.368;2022-10-17T12:02:46;100435.66;;;20.37;65.64
15678;BME280;7939;50.814;6.368;2022-10-17T12:05:23;100429.56;;;20.38;65.97
15678;BME280;7939;50.814;6.368;2022-10-17T12:07:55;100437.28;;;20.40;65.53
15678;BME280;7939;50.814;6.368;2022-10-17T12:10:33;100434.63;;;20.41;65.81
15678;BME280;7939;50.814;6.368;2022-10-17T12:19:19;100445.69;;;20.50;65.95
15678;BME280;7939;50.814;6.368;2022-10-17T12:21:55;100441.31;;;20.52;66.25
15678;BME280;7939;50.814;6.368;2022-10-17T12:24:39;100449.03;;;20.53;66.13
15678;BME280;7939;50.814;6.368;2022-10-17T12:27:36;100440.34;;;20.54;65.67
15678;BME280;7939;50.814;6.368;2022-10-17T12:30:06;100455.00;;;20.57;65.96
15678;BME280;7939;50.814;6.368;2022-10-17T12:33:02;100458.44;;;20.57;65.96
15678;BME280;7939;50.814;6.368;2022-10-17T12:35:31;100459.28;;;20.58;65.92
15678;BME280;7939;50.814;6.368;2022-10-17T12:38:27;100458.44;;;20.57;65.90
15678;BME280;7939;50.814;6.368;2022-10-17T12:41:00;100471.44;;;20.57;65.67
15678;BME280;7939;50.814;6.368;2022-10-17T12:43:47;100469.69;;;20.58;66.06
15678;BME280;7939;50.814;6.368;2022-10-17T12:46:45;100481.72;;;20.60;65.86
15678;BME280;7939;50.814;6.368;2022-10-17T12:49:37;100479.97;;;20.61;65.81
15678;BME280;7939;50.814;6.368;2022-10-17T12:52:14;100485.13;;;20.62;65.99
15678;BME280;7939;50.814;6.368;2022-10-17T12:54:45;100481.63;;;20.63;65.67
15678;BME280;7939;50.814;6.368;2022-10-17T12:57:14;100481.59;;;20.65;65.51
15678;BME280;7939;50.814;6.368;2022-10-17T12:59:45;100476.34;;;20.66;65.76
15678;BME280;7939;50.814;6.368;2022-10-17T13:02:17;100482.34;;;20.68;65.60
15678;BME280;7939;50.814;6.368;2022-10-17T13:04:44;100488.41;;;20.69;65.57
15678;BME280;7939;50.814;6.368;2022-10-17T13:07:16;100482.25;;;20.71;65.69
15678;BME280;7939;50.814;6.368;2022-10-17T13:09:46;100487.38;;;20.73;65.34
15678;BME280;7939;50.814;6.368;2022-10-17T13:12:17;100484.78;;;20.73;65.47
15678;BME280;7939;50.814;6.368;2022-10-17T13:14:46;100495.19;;;20.73;65.25
15678;BME280;7939;50.814;6.368;2022-10-17T13:17:24;100491.72;;;20.72;65.28
15678;BME280;7939;50.814;6.368;2022-10-17T13:19:53;100501.28;;;20.72;65.23
15678;BME280;7939;50.814;6.368;2022-10-17T13:22:22;100498.69;;;20.72;65.34
15678;BME280;7939;50.814;6.368;2022-10-17T13:24:52;100501.28;;;20.72;65.19
15678;BME280;7939;50.814;6.368;2022-10-17T13:27:25;100499.53;;;20.72;65.42
15678;BME280;7939;50.814;6.368;2022-10-17T13:29:53;100509.00;;;20.75;65.50
15678;BME280;7939;50.814;6.368;2022-10-17T13:32:21;100515.88;;;20.76;65.46
15678;BME280;7939;50.814;6.368;2022-10-17T13:35:04;100508.09;;;20.76;65.41